createdAt,value
2023-03-27T00:01:50.621Z,1.00
2023-03-27T00:04:22.408Z,0.90
2023-03-27T00:06:49.364Z,0.97
2023-03-27T00:09:17.232Z,0.70
2023-03-27T00:11:46.537Z,0.90
2023-03-27T00:14:16.394Z,1.00
2023-03-27T00:16:46.518Z,1.07
2023-03-27T00:19:16.193Z,0.97
2023-03-27T00:21:48.896Z,0.80
2023-03-27T00:24:16.123Z,0.80
2023-03-27T00:26:45.913Z,1.07
2023-03-27T00:29:13.586Z,0.87
2023-03-27T00:31:42.813Z,1.10
2023-03-27T00:34:10.658Z,0.83
2023-03-27T00:36:43.874Z,1.10
2023-03-27T00:39:11.506Z,1.17
2023-03-27T00:41:40.911Z,0.97
2023-03-27T00:44:27.139Z,1.20
2023-03-27T00:46:58.144Z,1.10
2023-03-27T00:49:36.370Z,1.30
2023-03-27T00:52:07.219Z,1.43
2023-03-27T00:54:39.058Z,0.90
2023-03-27T00:57:09.496Z,0.87
2023-03-27T00:59:40.932Z,0.77
2023-03-27T01:02:09.230Z,0.70
2023-03-27T01:04:40.446Z,1.20
2023-03-27T01:07:11.378Z,0.73
2023-03-27T01:09:39.419Z,0.87
2023-03-27T01:12:38.591Z,0.93
2023-03-27T01:15:33.183Z,1.00
2023-03-27T01:18:16.369Z,0.80
2023-03-27T01:20:59.943Z,1.10
2023-03-27T01:23:59.822Z,0.80
2023-03-27T01:27:07.731Z,1.00
2023-03-27T01:30:02.943Z,1.27
2023-03-27T01:32:57.347Z,0.80
2023-03-27T01:36:04.377Z,1.13
2023-03-27T01:38:37.257Z,0.90
2023-03-27T01:41:13.079Z,1.10
2023-03-27T01:44:17.725Z,1.07
2023-03-27T01:47:34.323Z,0.90
2023-03-27T01:50:13.202Z,1.27
2023-03-27T01:52:44.394Z,0.97
2023-03-27T01:55:19.456Z,1.10
2023-03-27T01:58:03.367Z,1.20
2023-03-27T02:00:51.706Z,0.93
2023-03-27T02:03:31.875Z,1.00
2023-03-27T02:06:14.466Z,1.10
2023-03-27T02:08:53.508Z,0.80
2023-03-27T02:11:29.065Z,1.10
2023-03-27T02:14:09.929Z,0.83
2023-03-27T02:16:48.854Z,1.20
2023-03-27T02:19:35.314Z,0.90
2023-03-27T02:22:02.539Z,0.80
2023-03-27T02:24:38.923Z,0.70
2023-03-27T02:27:34.601Z,0.90
2023-03-27T02:30:09.885Z,1.13
2023-03-27T02:33:06.588Z,0.80
2023-03-27T02:35:39.606Z,1.60
2023-03-27T02:38:09.838Z,1.33
2023-03-27T02:41:10.044Z,0.77
2023-03-27T02:44:03.502Z,0.63
2023-03-27T02:46:54.895Z,0.93
2023-03-27T02:49:33.670Z,1.03
2023-03-27T02:52:06.735Z,0.87
2023-03-27T02:54:41.087Z,0.80
2023-03-27T02:57:16.685Z,0.97
2023-03-27T03:00:05.646Z,0.97
2023-03-27T03:02:38.224Z,0.90
2023-03-27T03:05:14.688Z,0.90
2023-03-27T03:07:41.828Z,0.93
2023-03-27T03:10:12.041Z,0.87
2023-03-27T03:12:46.774Z,1.00
2023-03-27T03:15:13.639Z,1.00
2023-03-27T03:17:40.693Z,0.90
2023-03-27T03:20:09.965Z,0.90
2023-03-27T03:22:40.106Z,1.20
2023-03-27T03:25:07.977Z,1.17
2023-03-27T03:27:39.209Z,1.20
2023-03-27T03:30:16.600Z,1.17
2023-03-27T03:33:07.483Z,1.17
2023-03-27T03:35:35.105Z,0.97
2023-03-27T03:38:08.856Z,1.00
2023-03-27T03:40:44.165Z,1.20
2023-03-27T03:43:13.493Z,1.03
2023-03-27T03:45:42.865Z,0.97
2023-03-27T03:48:12.048Z,0.80
2023-03-27T03:50:41.311Z,0.80
2023-03-27T03:53:08.245Z,0.77
2023-03-27T03:55:35.176Z,0.90
2023-03-27T03:58:04.377Z,0.97
2023-03-27T04:00:38.394Z,0.93
2023-03-27T04:03:09.968Z,0.93
2023-03-27T04:05:39.180Z,1.10
2023-03-27T04:08:13.170Z,0.80
2023-03-27T04:11:06.190Z,1.00
2023-03-27T04:13:58.035Z,1.00
2023-03-27T04:16:31.110Z,0.90
2023-03-27T04:19:03.621Z,1.10
2023-03-27T04:21:36.714Z,1.00
2023-03-27T04:24:08.569Z,1.10
2023-03-27T04:26:48.170Z,0.97
2023-03-27T04:29:22.576Z,1.13
2023-03-27T04:31:59.398Z,1.20
2023-03-27T04:34:41.806Z,1.37
2023-03-27T04:37:29.489Z,1.67
2023-03-27T04:40:05.331Z,1.20
2023-03-27T04:42:32.299Z,1.50
2023-03-27T04:44:59.221Z,1.60
2023-03-27T04:47:32.077Z,1.40
2023-03-27T04:50:01.154Z,1.30
2023-03-27T04:52:30.214Z,1.87
2023-03-27T04:54:59.073Z,1.10
2023-03-27T04:57:31.049Z,1.00
2023-03-27T05:00:02.166Z,0.80
2023-03-27T05:02:48.095Z,0.63
2023-03-27T05:05:20.988Z,0.73
2023-03-27T05:07:49.835Z,0.80
2023-03-27T05:10:21.889Z,0.90
2023-03-27T05:12:51.664Z,0.80
2023-03-27T05:15:22.036Z,1.00
2023-03-27T05:17:55.213Z,0.60
2023-03-27T05:20:25.462Z,0.60
2023-03-27T05:22:56.596Z,0.90
2023-03-27T05:25:35.940Z,0.80
2023-03-27T05:28:09.567Z,0.70
2023-03-27T05:30:39.260Z,0.83
2023-03-27T05:33:17.800Z,0.90
2023-03-27T05:35:48.621Z,0.90
2023-03-27T05:38:16.945Z,0.93
2023-03-27T05:41:13.042Z,0.80
2023-03-27T05:43:50.191Z,0.90
2023-03-27T05:46:21.991Z,0.70
2023-03-27T05:48:59.395Z,1.03
2023-03-27T05:51:29.638Z,0.90
2023-03-27T05:53:56.974Z,1.10
2023-03-27T05:56:33.462Z,1.00
2023-03-27T05:59:05.254Z,0.80
2023-03-27T06:01:37.622Z,0.90
2023-03-27T06:04:11.228Z,0.90
2023-03-27T06:07:09.454Z,0.90
2023-03-27T06:09:36.806Z,1.20
2023-03-27T06:12:26.848Z,0.90
2023-03-27T06:15:07.672Z,1.37
2023-03-27T06:17:43.341Z,0.97
2023-03-27T06:20:15.797Z,1.00
2023-03-27T06:22:52.891Z,1.00
2023-03-27T06:25:32.285Z,1.00
2023-03-27T06:28:08.669Z,0.93
2023-03-27T06:30:44.710Z,1.70
2023-03-27T06:33:33.116Z,0.80
2023-03-27T06:36:05.605Z,0.97
2023-03-27T06:38:42.668Z,1.07
2023-03-27T06:41:12.890Z,1.50
2023-03-27T06:44:09.369Z,1.40
2023-03-27T06:46:59.873Z,1.60
2023-03-27T06:49:31.889Z,1.10
2023-03-27T06:52:07.060Z,1.07
2023-03-27T06:54:40.911Z,1.10
2023-03-27T06:57:15.838Z,1.30
2023-03-27T06:59:54.715Z,1.07
2023-03-27T07:02:28.855Z,1.20
2023-03-27T07:05:15.838Z,1.20
2023-03-27T07:07:49.324Z,1.30
2023-03-27T07:10:22.702Z,0.80
2023-03-27T07:12:54.550Z,1.00
2023-03-27T07:15:25.123Z,1.03
2023-03-27T07:18:04.518Z,1.03
2023-03-27T07:20:37.279Z,1.47
2023-03-27T07:23:13.068Z,1.40
2023-03-27T07:26:02.144Z,1.27
2023-03-27T07:28:52.923Z,1.10
2023-03-27T07:31:34.999Z,1.00
2023-03-27T07:34:10.679Z,1.60
2023-03-27T07:37:02.023Z,1.10
2023-03-27T07:39:35.584Z,1.80
2023-03-27T07:42:08.791Z,1.57
2023-03-27T07:45:06.615Z,1.20
2023-03-27T07:47:33.651Z,1.13
2023-03-27T07:50:06.353Z,1.40
2023-03-27T07:52:35.959Z,1.10
2023-03-27T07:55:08.695Z,1.50
2023-03-27T07:57:59.916Z,1.57
2023-03-27T08:00:35.657Z,1.40
2023-03-27T08:03:15.368Z,1.23
2023-03-27T08:05:47.458Z,1.70
2023-03-27T08:08:16.311Z,1.97
2023-03-27T08:11:00.762Z,2.10
2023-03-27T08:13:33.324Z,2.00
2023-03-27T08:16:11.515Z,2.33
2023-03-27T08:18:40.953Z,2.60
2023-03-27T08:21:13.358Z,2.60
2023-03-27T08:23:44.343Z,2.47
2023-03-27T08:26:29.853Z,2.90
2023-03-27T08:28:59.420Z,3.10
2023-03-27T08:31:31.889Z,3.13
2023-03-27T08:34:05.687Z,3.20
2023-03-27T08:36:46.706Z,2.90
2023-03-27T08:39:17.066Z,3.20
2023-03-27T08:42:13.932Z,2.77
2023-03-27T08:44:45.311Z,3.60
2023-03-27T08:47:42.597Z,3.30
2023-03-27T08:50:32.638Z,2.23
2023-03-27T08:53:17.440Z,1.80
2023-03-27T08:55:44.783Z,2.50
2023-03-27T08:58:22.183Z,2.10
2023-03-27T09:01:19.573Z,1.97
2023-03-27T09:04:05.221Z,2.50
2023-03-27T09:06:50.705Z,2.40
2023-03-27T09:09:24.362Z,2.30
2023-03-27T09:12:24.578Z,2.80
2023-03-27T09:15:15.633Z,3.80
2023-03-27T09:18:39.633Z,3.30
2023-03-27T09:21:36.730Z,2.93
2023-03-27T09:24:25.034Z,4.17
2023-03-27T09:27:27.168Z,2.80
2023-03-27T09:30:11.200Z,3.47
2023-03-27T09:32:54.237Z,3.57
2023-03-27T09:35:25.887Z,3.70
2023-03-27T09:38:04.047Z,4.07
2023-03-27T09:40:50.022Z,4.50
2023-03-27T09:43:24.419Z,3.70
2023-03-27T09:45:59.047Z,3.30
2023-03-27T09:48:40.270Z,4.57
2023-03-27T09:51:36.615Z,3.57
2023-03-27T09:54:14.894Z,3.90
2023-03-27T09:56:50.473Z,3.47
2023-03-27T09:59:28.669Z,4.43
2023-03-27T10:02:24.086Z,4.17
2023-03-27T10:05:23.313Z,4.47
2023-03-27T10:07:59.651Z,5.00
2023-03-27T10:10:55.563Z,3.07
2023-03-27T10:13:48.098Z,3.67
2023-03-27T10:16:22.877Z,3.73
2023-03-27T10:19:04.060Z,3.80
2023-03-27T10:21:42.842Z,4.40
2023-03-27T10:24:27.529Z,3.70
2023-03-27T10:27:17.329Z,3.87
2023-03-27T10:30:34.333Z,3.60
2023-03-27T10:33:45.822Z,3.87
2023-03-27T10:36:39.668Z,3.10
2023-03-27T10:39:16.596Z,4.13
2023-03-27T10:41:55.810Z,4.07
2023-03-27T10:44:30.929Z,4.53
2023-03-27T10:47:03.209Z,3.97
2023-03-27T10:49:58.688Z,2.90
2023-03-27T10:52:33.925Z,3.00
2023-03-27T10:55:33.503Z,3.03
2023-03-27T10:58:14.226Z,4.50
2023-03-27T11:00:49.075Z,2.80
2023-03-27T11:03:45.833Z,4.00
2023-03-27T11:06:20.977Z,3.03
2023-03-27T11:09:05.846Z,3.30
2023-03-27T11:11:41.248Z,2.80
2023-03-27T11:14:46.051Z,4.00
2023-03-27T11:17:23.283Z,3.53
2023-03-27T11:20:37.199Z,3.87
2023-03-27T11:23:43.595Z,3.63
2023-03-27T11:26:39.732Z,3.57
2023-03-27T11:29:23.188Z,3.10
2023-03-27T11:32:04.347Z,3.10
2023-03-27T11:34:42.725Z,2.50
2023-03-27T11:38:02.868Z,2.70
2023-03-27T11:40:43.396Z,1.83
2023-03-27T11:43:17.665Z,2.30
2023-03-27T11:46:22.920Z,3.03
2023-03-27T11:49:07.458Z,2.63
2023-03-27T11:51:39.745Z,2.30
2023-03-27T11:54:40.839Z,2.07
2023-03-27T11:57:26.029Z,1.90
2023-03-27T12:00:18.449Z,2.30
2023-03-27T12:03:07.047Z,1.90
2023-03-27T12:06:02.252Z,2.13
2023-03-27T12:08:56.386Z,2.27
2023-03-27T12:11:27.206Z,1.77
2023-03-27T12:14:28.268Z,1.60
2023-03-27T12:17:20.630Z,2.03
2023-03-27T12:20:09.357Z,1.70
2023-03-27T12:23:19.466Z,1.53
2023-03-27T12:26:06.712Z,2.00
2023-03-27T12:29:40.829Z,1.80
2023-03-27T12:32:32.042Z,1.30
2023-03-27T12:35:14.434Z,1.70
2023-03-27T12:37:59.986Z,1.60
2023-03-27T12:40:38.963Z,1.10
2023-03-27T12:43:33.894Z,1.10
2023-03-27T12:46:23.602Z,1.70
2023-03-27T12:48:56.743Z,1.30
2023-03-27T12:51:39.713Z,1.20
2023-03-27T12:54:16.670Z,1.90
2023-03-27T12:56:45.729Z,2.00
2023-03-27T12:59:28.327Z,1.13
2023-03-27T13:02:06.761Z,1.70
2023-03-27T13:04:47.950Z,2.13
2023-03-27T13:07:29.046Z,1.70
2023-03-27T13:10:30.146Z,1.30
2023-03-27T13:13:23.652Z,1.40
2023-03-27T13:16:19.584Z,1.57
2023-03-27T13:18:59.125Z,1.47
2023-03-27T13:21:29.713Z,1.47
2023-03-27T13:24:34.184Z,1.20
2023-03-27T13:27:15.458Z,1.27
2023-03-27T13:29:50.170Z,1.20
2023-03-27T13:32:38.195Z,1.70
2023-03-27T13:35:38.437Z,1.27
2023-03-27T13:38:05.340Z,1.43
2023-03-27T13:40:54.886Z,1.10
2023-03-27T13:43:31.046Z,0.97
2023-03-27T13:46:08.291Z,0.80
2023-03-27T13:49:15.870Z,1.23
2023-03-27T13:52:33.500Z,1.30
2023-03-27T13:55:17.780Z,1.37
2023-03-27T13:58:32.824Z,1.80
2023-03-27T14:01:26.192Z,1.73
2023-03-27T14:04:11.353Z,1.13
2023-03-27T14:07:05.438Z,1.20
2023-03-27T14:09:50.441Z,1.20
2023-03-27T14:12:27.922Z,1.37
2023-03-27T14:15:21.573Z,1.03
2023-03-27T14:18:25.875Z,1.20
2023-03-27T14:21:03.595Z,1.47
2023-03-27T14:23:52.062Z,1.37
2023-03-27T14:26:45.501Z,1.20
2023-03-27T14:29:21.386Z,1.27
2023-03-27T14:31:53.778Z,1.50
2023-03-27T14:34:35.240Z,1.10
2023-03-27T14:37:32.925Z,0.90
2023-03-27T14:40:23.182Z,1.17
2023-03-27T14:42:54.539Z,1.17
2023-03-27T14:45:30.339Z,1.37
2023-03-27T14:48:06.445Z,0.90
2023-03-27T14:50:47.892Z,1.30
2023-03-27T14:53:26.298Z,1.03
2023-03-27T14:56:31.989Z,1.43
2023-03-27T14:59:14.059Z,1.40
2023-03-27T15:01:58.145Z,1.33
2023-03-27T15:04:28.360Z,1.40
2023-03-27T15:07:19.150Z,1.13
2023-03-27T15:10:07.008Z,1.00
2023-03-27T15:13:12.333Z,1.00
2023-03-27T15:15:53.648Z,0.90
2023-03-27T15:18:53.171Z,1.60
2023-03-27T15:21:34.893Z,1.10
2023-03-27T15:24:13.770Z,0.87
2023-03-27T15:26:45.348Z,1.10
2023-03-27T15:29:24.095Z,2.63
2023-03-27T15:31:59.967Z,1.83
2023-03-27T15:34:47.785Z,1.40
2023-03-27T15:37:23.466Z,1.43
2023-03-27T15:40:10.424Z,1.37
2023-03-27T15:42:52.788Z,1.30
2023-03-27T15:45:38.438Z,1.90
2023-03-27T15:48:32.749Z,1.23
2023-03-27T15:51:06.510Z,1.60
2023-03-27T15:53:43.526Z,1.47
2023-03-27T15:56:13.077Z,1.40
2023-03-27T15:58:59.964Z,1.23
2023-03-27T16:01:32.570Z,1.30
2023-03-27T16:04:12.544Z,1.37
2023-03-27T16:06:46.047Z,1.30
2023-03-27T16:09:23.516Z,1.90
2023-03-27T16:11:56.126Z,2.10
2023-03-27T16:14:28.201Z,1.20
2023-03-27T16:17:14.926Z,1.77
2023-03-27T16:19:56.195Z,1.70
2023-03-27T16:22:35.692Z,1.50
2023-03-27T16:25:04.531Z,2.10
2023-03-27T16:27:43.687Z,1.27
2023-03-27T16:30:23.560Z,1.67
2023-03-27T16:32:55.989Z,1.60
2023-03-27T16:35:25.257Z,1.40
2023-03-27T16:37:56.817Z,2.27
2023-03-27T16:40:26.352Z,1.40
2023-03-27T16:42:53.173Z,1.73
2023-03-27T16:45:25.387Z,3.13
2023-03-27T16:47:53.516Z,1.67
2023-03-27T16:50:23.479Z,1.63
2023-03-27T16:52:55.246Z,1.97
2023-03-27T16:55:25.407Z,1.97
2023-03-27T16:57:55.879Z,1.70
2023-03-27T17:00:23.104Z,1.30
2023-03-27T17:02:52.209Z,1.23
2023-03-27T17:05:22.533Z,1.67
2023-03-27T17:07:51.884Z,1.60
2023-03-27T17:10:21.326Z,1.57
2023-03-27T17:12:53.720Z,2.10
2023-03-27T17:15:25.960Z,1.23
2023-03-27T17:17:55.197Z,1.80
2023-03-27T17:20:27.383Z,1.50
2023-03-27T17:22:56.930Z,1.50
2023-03-27T17:25:23.778Z,1.27
2023-03-27T17:27:52.871Z,1.23
2023-03-27T17:30:36.622Z,1.83
2023-03-27T17:33:11.199Z,2.10
2023-03-27T17:35:41.531Z,2.17
2023-03-27T17:38:13.172Z,2.40
2023-03-27T17:40:41.181Z,2.00
2023-03-27T17:43:08.085Z,1.70
2023-03-27T17:45:41.470Z,2.20
2023-03-27T17:48:11.667Z,2.73
2023-03-27T17:50:41.975Z,1.33
2023-03-27T17:53:14.374Z,1.70
2023-03-27T17:55:44.165Z,1.90
2023-03-27T17:58:22.078Z,1.70
2023-03-27T18:00:50.065Z,1.93
2023-03-27T18:03:24.263Z,2.80
2023-03-27T18:05:51.231Z,1.80
2023-03-27T18:08:19.915Z,1.27
2023-03-27T18:10:55.612Z,2.03
2023-03-27T18:13:22.464Z,1.67
2023-03-27T18:15:58.526Z,2.17
2023-03-27T18:18:25.971Z,1.47
2023-03-27T18:20:56.646Z,1.33
2023-03-27T18:23:23.605Z,1.40
2023-03-27T18:25:52.719Z,1.80
2023-03-27T18:28:22.514Z,1.87
2023-03-27T18:31:02.220Z,1.80
2023-03-27T18:33:34.733Z,1.47
2023-03-27T18:36:01.909Z,2.20
2023-03-27T18:38:30.131Z,1.73
2023-03-27T18:41:01.644Z,1.97
2023-03-27T18:43:33.693Z,2.03
2023-03-27T18:46:04.300Z,2.43
2023-03-27T18:48:31.656Z,2.13
2023-03-27T18:51:05.580Z,2.30
2023-03-27T18:53:33.132Z,2.80
2023-03-27T18:56:05.175Z,2.40
2023-03-27T18:58:36.892Z,1.70
2023-03-27T19:01:11.053Z,2.17
2023-03-27T19:03:43.064Z,2.23
2023-03-27T19:06:12.024Z,3.00
2023-03-27T19:08:43.376Z,1.97
2023-03-27T19:11:12.614Z,2.03
2023-03-27T19:13:58.419Z,1.90
2023-03-27T19:16:43.846Z,2.10
2023-03-27T19:19:16.533Z,2.20
2023-03-27T19:21:52.743Z,2.23
2023-03-27T19:24:27.341Z,2.23
2023-03-27T19:26:54.433Z,3.23
2023-03-27T19:29:23.574Z,2.73
2023-03-27T19:31:54.603Z,1.83
2023-03-27T19:34:32.673Z,2.33
2023-03-27T19:37:09.314Z,3.50
2023-03-27T19:39:36.320Z,2.30
2023-03-27T19:42:05.824Z,3.27
2023-03-27T19:44:38.329Z,3.00
2023-03-27T19:47:07.746Z,2.30
2023-03-27T19:49:37.970Z,2.60
2023-03-27T19:52:18.834Z,2.40
2023-03-27T19:54:46.680Z,2.27
2023-03-27T19:57:13.625Z,1.70
2023-03-27T19:59:45.514Z,2.90
2023-03-27T20:02:13.499Z,2.30
2023-03-27T20:04:40.443Z,3.10
2023-03-27T20:07:07.856Z,2.57
2023-03-27T20:09:37.403Z,2.47
2023-03-27T20:12:06.083Z,2.40
2023-03-27T20:14:33.036Z,1.83
2023-03-27T20:16:59.959Z,2.10
2023-03-27T20:19:30.775Z,2.57
2023-03-27T20:22:07.869Z,1.80
2023-03-27T20:24:34.738Z,2.13
2023-03-27T20:27:02.308Z,2.73
2023-03-27T20:29:29.231Z,2.00
2023-03-27T20:32:00.850Z,2.40
2023-03-27T20:34:30.173Z,2.60
2023-03-27T20:36:59.775Z,2.37
2023-03-27T20:39:47.422Z,1.93
2023-03-27T20:42:18.424Z,1.90
2023-03-27T20:44:55.079Z,3.20
2023-03-27T20:47:26.508Z,3.20
2023-03-27T20:49:59.053Z,2.47
2023-03-27T20:52:30.792Z,2.37
2023-03-27T20:54:57.753Z,2.17
2023-03-27T20:57:27.101Z,2.70
2023-03-27T20:59:56.685Z,2.43
2023-03-27T21:02:26.734Z,2.60
2023-03-27T21:04:53.701Z,2.40
2023-03-27T21:07:25.528Z,3.10
2023-03-27T21:09:54.948Z,3.83
2023-03-27T21:12:21.820Z,2.43
2023-03-27T21:14:48.699Z,2.00
2023-03-27T21:17:18.221Z,2.67
2023-03-27T21:19:45.117Z,3.03
2023-03-27T21:22:14.299Z,2.60
2023-03-27T21:24:45.582Z,2.90
2023-03-27T21:27:12.855Z,2.10
2023-03-27T21:29:39.699Z,3.30
2023-03-27T21:32:06.947Z,2.80
2023-03-27T21:34:36.414Z,3.40
2023-03-27T21:37:05.568Z,2.90
2023-03-27T21:39:37.330Z,2.67
2023-03-27T21:42:09.574Z,3.27
2023-03-27T21:44:38.551Z,2.33
2023-03-27T21:47:10.416Z,2.90
2023-03-27T21:49:39.857Z,2.63
2023-03-27T21:52:09.497Z,2.20
2023-03-27T21:54:38.822Z,3.00
2023-03-27T21:57:05.958Z,2.57
2023-03-27T21:59:33.061Z,2.93
2023-03-27T22:02:00.123Z,2.83
2023-03-27T22:04:31.895Z,2.47
2023-03-27T22:07:01.179Z,2.30
2023-03-27T22:09:33.142Z,2.40
2023-03-27T22:12:03.000Z,2.67
2023-03-27T22:14:30.103Z,2.80
2023-03-27T22:16:59.762Z,2.23
2023-03-27T22:19:26.788Z,2.07
2023-03-27T22:21:53.888Z,2.40
2023-03-27T22:24:25.323Z,3.10
2023-03-27T22:26:54.700Z,2.70
2023-03-27T22:29:21.785Z,2.10
2023-03-27T22:31:48.893Z,2.60
2023-03-27T22:34:16.032Z,2.87
2023-03-27T22:36:47.282Z,2.50
2023-03-27T22:39:16.757Z,2.13
2023-03-27T22:41:48.534Z,2.43
2023-03-27T22:44:18.340Z,3.27
2023-03-27T22:46:47.589Z,2.70
2023-03-27T22:49:19.335Z,2.90
2023-03-27T22:51:46.213Z,2.30
2023-03-27T22:54:15.812Z,2.60
2023-03-27T22:56:42.769Z,2.43
2023-03-27T22:59:12.815Z,2.23
2023-03-27T23:01:40.288Z,1.80
2023-03-27T23:04:09.780Z,2.30
2023-03-27T23:06:36.743Z,2.57
2023-03-27T23:09:06.539Z,3.00
2023-03-27T23:11:35.987Z,2.23
2023-03-27T23:14:02.880Z,2.10
2023-03-27T23:16:34.624Z,2.93
2023-03-27T23:19:04.145Z,2.53
2023-03-27T23:21:33.672Z,2.57
2023-03-27T23:24:04.976Z,2.47
2023-03-27T23:26:36.892Z,2.53
2023-03-27T23:29:06.186Z,2.67
2023-03-27T23:31:35.889Z,2.77
2023-03-27T23:34:05.278Z,3.23
2023-03-27T23:36:34.657Z,3.07
2023-03-27T23:39:03.758Z,3.80
2023-03-27T23:41:30.693Z,2.80
2023-03-27T23:44:00.586Z,2.60
2023-03-27T23:46:29.702Z,2.83
2023-03-27T23:48:58.662Z,2.60
2023-03-27T23:51:32.936Z,2.90
2023-03-27T23:54:05.033Z,4.13
2023-03-27T23:56:34.226Z,2.70
2023-03-27T23:59:03.235Z,2.63
